Time;durP1;ratioP1;P1;durP2;ratioP2;P2;SDS_P1;SDS_P2;PMS_P1;PMS_P2;Temp;Humidity;BMP_temperature;BMP_pressure;BME280_temperature;BME280_humidity;BME280_pressure;Samples;Min_cycle;Max_cycle;Signal;HPM_P1;HPM_P2
2022/11/28 00:01:19;;;;;;;34.27;18.98;;;;;;;3.06;71.21;102413.20;1763924;79;25510;-61
2022/11/28 00:03:47;;;;;;;38.83;18.80;;;;;;;3.00;71.30;102408.97;1761955;79;27394;-62
2022/11/28 00:06:14;;;;;;;33.10;18.73;;;;;;;2.98;71.44;102406.81;1764447;80;25707;-61
2022/11/28 00:08:41;;;;;;;38.28;18.90;;;;;;;2.96;71.63;102408.16;1767018;81;25774;-61
2022/11/28 00:11:11;;;;;;;32.98;18.17;;;;;;;2.96;71.71;102401.99;1766920;81;26458;-62
2022/11/28 00:13:39;;;;;;;33.08;16.80;;;;;;;2.95;72.04;102402.47;1767116;81;25818;-62
2022/11/28 00:16:08;;;;;;;31.73;16.55;;;;;;;2.96;72.49;102404.17;1766922;81;28290;-62
2022/11/28 00:18:35;;;;;;;34.27;18.15;;;;;;;2.95;72.38;102411.77;1773154;80;25723;-62
2022/11/28 00:21:10;;;;;;;33.75;17.73;;;;;;;2.95;72.38;102413.09;1775658;79;25746;-62
2022/11/28 00:23:37;;;;;;;34.88;18.35;;;;;;;3.00;72.72;102413.41;1775491;79;26434;-62
2022/11/28 00:26:08;;;;;;;41.40;18.67;;;;;;;3.01;72.70;102410.69;1775646;80;25706;-61
2022/11/28 00:28:36;;;;;;;39.05;17.80;;;;;;;3.07;72.95;102410.95;1775411;79;28391;-61
2022/11/28 00:31:03;;;;;;;34.95;17.62;;;;;;;3.13;72.97;102414.31;1775692;79;25846;-61
2022/11/28 00:33:32;;;;;;;38.98;18.48;;;;;;;3.18;72.89;102414.17;1775483;80;25703;-61
2022/11/28 00:36:02;;;;;;;40.55;19.23;;;;;;;3.24;73.01;102409.13;1775454;80;25756;-61
2022/11/28 00:38:30;;;;;;;32.80;17.52;;;;;;;3.26;72.96;102414.80;1775341;80;25706;-61
2022/11/28 00:41:01;;;;;;;35.68;18.70;;;;;;;3.32;73.07;102425.70;1775330;80;28170;-61
2022/11/28 00:43:28;;;;;;;40.98;20.15;;;;;;;3.33;72.83;102422.13;1775379;80;25707;-61
2022/11/28 00:45:55;;;;;;;37.13;19.92;;;;;;;3.29;72.34;102409.83;1773445;80;25762;-61
2022/11/28 00:48:23;;;;;;;35.15;17.77;;;;;;;3.27;72.38;102405.90;1766655;80;25769;-61
2022/11/28 00:50:51;;;;;;;38.42;20.35;;;;;;;3.27;72.27;102406.37;1766946;79;25723;-61
2022/11/28 00:53:18;;;;;;;37.25;18.77;;;;;;;3.25;72.25;102402.41;1767907;80;27467;-62
2022/11/28 00:55:45;;;;;;;37.35;18.85;;;;;;;3.24;72.21;102403.33;1767414;81;25799;-62
2022/11/28 00:58:12;;;;;;;35.92;20.00;;;;;;;3.23;71.83;102402.05;1766916;80;25728;-62
2022/11/28 01:00:39;;;;;;;36.98;19.73;;;;;;;3.17;71.61;102401.78;1766827;81;26268;-62
2022/11/28 01:03:07;;;;;;;42.30;21.65;;;;;;;3.12;71.61;102405.06;1762876;80;25687;-61
2022/11/28 01:05:40;;;;;;;38.30;20.35;;;;;;;3.04;71.53;102402.63;1758928;81;28460;-62
2022/11/28 01:08:07;;;;;;;;;;;;;;;3.00;71.66;102399.66;1771132;80;25754;-61
2022/11/28 01:10:34;;;;;;;37.95;20.08;;;;;;;2.95;71.71;102398.91;1775306;80;25722;-61
2022/11/28 01:13:00;;;;;;;40.20;19.65;;;;;;;2.91;71.77;102403.93;1775246;80;26718;-61
2022/11/28 01:15:27;;;;;;;41.18;21.37;;;;;;;2.87;71.91;102399.61;1775254;80;25727;-62
2022/11/28 01:17:54;;;;;;;42.88;20.15;;;;;;;2.87;72.28;102397.81;1775354;80;27489;-61
2022/11/28 01:20:21;;;;;;;39.83;19.92;;;;;;;2.87;72.41;102401.80;1775201;80;25751;-61
2022/11/28 01:22:48;;;;;;;39.60;20.60;;;;;;;2.89;72.60;102396.45;1775025;80;25762;-61
2022/11/28 01:25:15;;;;;;;39.35;20.70;;;;;;;2.90;72.73;102392.41;1706476;82;25944;-61
2022/11/28 01:27:41;;;;;;;40.83;20.20;;;;;;;2.94;72.85;102383.88;1736058;82;25754;-62
2022/11/28 01:30:08;;;;;;;40.43;20.10;;;;;;;2.97;72.82;102380.66;1735549;82;27473;-61
2022/11/28 01:32:35;;;;;;;38.28;19.37;;;;;;;3.02;73.00;102369.89;1735650;82;26055;-62
2022/11/28 01:35:01;;;;;;;35.80;18.55;;;;;;;3.08;73.13;102376.37;1742655;81;26147;-62
2022/11/28 01:37:29;;;;;;;38.25;19.80;;;;;;;3.11;72.98;102381.56;1744013;81;25816;-62
2022/11/28 01:39:56;;;;;;;31.57;17.87;;;;;;;3.14;72.93;102381.92;1739733;81;25745;-61
2022/11/28 01:42:23;;;;;;;37.00;19.92;;;;;;;3.17;72.81;102376.52;1738141;81;27468;-62
2022/11/28 01:44:55;;;;;;;35.00;18.57;;;;;;;3.16;72.80;102376.10;1736198;81;25895;-61
2022/11/28 01:47:27;;;;;;;35.05;18.82;;;;;;;3.17;72.83;102369.02;1753134;81;25715;-61
2022/11/28 01:49:54;;;;;;;36.90;19.35;;;;;;;3.13;72.69;102365.11;1721713;83;25966;-61
2022/11/28 01:52:23;;;;;;;37.38;19.98;;;;;;;3.11;72.74;102369.59;1759355;80;25786;-61
2022/11/28 01:54:54;;;;;;;31.90;18.50;;;;;;;3.06;72.70;102370.22;1774110;80;27594;-62
2022/11/28 01:57:24;;;;;;;41.40;20.30;;;;;;;3.04;72.84;102372.05;1769978;79;25731;-62
2022/11/28 01:59:57;;;;;;;39.40;20.12;;;;;;;3.05;72.84;102378.25;1759180;81;25695;-61
2022/11/28 02:02:44;;;;;;;40.20;20.62;;;;;;;3.05;72.65;102383.57;1729474;80;25836;-61
2022/11/28 02:05:11;;;;;;;34.88;18.87;;;;;;;3.02;72.60;102377.86;1720601;81;25766;-62
2022/11/28 02:07:39;;;;;;;40.10;19.17;;;;;;;3.00;72.53;102375.73;1758702;81;27478;-62
2022/11/28 02:10:10;;;;;;;37.48;19.60;;;;;;;2.95;72.12;102374.55;1767072;81;25758;-61
2022/11/28 02:13:00;;;;;;;34.35;18.87;;;;;;;2.90;72.08;102364.97;1767228;81;25726;-61
2022/11/28 02:16:12;;;;;;;35.17;18.87;;;;;;;2.82;72.05;102351.43;1767079;81;25639;-61
2022/11/28 02:19:15;;;;;;;33.53;17.95;;;;;;;2.72;72.28;102350.00;1766876;80;25900;-61
2022/11/28 02:22:08;;;;;;;35.88;20.20;;;;;;;2.60;72.55;102351.20;1767039;81;27322;-61
2022/11/28 02:25:14;;;;;;;42.38;19.70;;;;;;;2.55;72.69;102364.25;1767116;81;25765;-62
2022/11/28 02:28:01;;;;;;;39.08;19.70;;;;;;;2.52;73.09;102361.66;1767239;81;25678;-62
2022/11/28 02:31:18;;;;;;;35.50;18.90;;;;;;;2.51;73.48;102362.11;1757128;81;26560;-62
2022/11/28 02:33:50;;;;;;;33.85;19.25;;;;;;;2.53;73.61;102360.75;1756313;80;25795;-61
2022/11/28 02:36:50;;;;;;;36.77;18.30;;;;;;;2.58;73.89;102366.79;1767361;81;28752;-61
2022/11/28 02:39:44;;;;;;;29.92;17.17;;;;;;;2.57;73.92;102361.06;1766837;81;25770;-61
2022/11/28 02:42:19;;;;;;;36.08;18.40;;;;;;;2.54;73.84;102358.52;1766677;80;25754;-61
2022/11/28 02:45:11;;;;;;;32.65;17.65;;;;;;;2.55;74.04;102357.60;1766447;81;27282;-61
2022/11/28 02:47:44;;;;;;;36.75;18.65;;;;;;;2.62;74.33;102360.02;1767104;80;25689;-61
2022/11/28 02:50:24;;;;;;;;;;;;;;;2.68;74.41;102353.65;1769621;81;28542;-61
2022/11/28 02:53:01;;;;;;;33.75;17.48;;;;;;;2.69;74.12;102349.22;1764748;81;25881;-61
2022/11/28 02:55:29;;;;;;;38.00;17.60;;;;;;;2.65;74.12;102344.43;1767598;81;25630;-61
2022/11/28 02:57:56;;;;;;;30.17;15.90;;;;;;;2.66;74.33;102349.72;1767417;81;26559;-60
2022/11/28 03:00:34;;;;;;;33.92;18.32;;;;;;;2.64;74.13;102350.22;1767694;81;25760;-60
2022/11/28 03:03:30;;;;;;;36.85;19.25;;;;;;;2.62;74.09;102353.84;1767535;79;27729;-61
2022/11/28 03:06:20;;;;;;;36.80;18.90;;;;;;;2.57;74.07;102349.10;1766373;81;25987;-61
2022/11/28 03:09:00;;;;;;;34.75;18.80;;;;;;;2.49;74.10;102353.34;1767752;79;25711;-61
2022/11/28 03:12:13;;;;;;;42.05;19.40;;;;;;;2.39;74.03;102352.71;1765827;81;25845;-62
2022/11/28 03:14:56;;;;;;;33.30;19.17;;;;;;;2.32;73.97;102346.73;1767221;81;25726;-61
2022/11/28 03:18:02;;;;;;;31.70;17.42;;;;;;;2.21;74.20;102339.52;1766933;81;28560;-62
2022/11/28 03:20:34;;;;;;;32.50;17.45;;;;;;;2.14;74.53;102341.47;1766985;81;25702;-61
2022/11/28 03:23:21;;;;;;;34.15;17.65;;;;;;;2.07;74.56;102343.00;1766945;79;25465;-61
2022/11/28 03:26:02;;;;;;;37.45;19.82;;;;;;;2.06;74.65;102345.27;1768086;81;25853;-62
2022/11/28 03:28:37;;;;;;;33.92;18.82;;;;;;;2.06;74.84;102347.92;1766963;80;27336;-62
2022/11/28 03:31:17;;;;;;;41.00;19.20;;;;;;;2.07;75.23;102344.32;1766858;80;28417;-60
2022/11/28 03:33:49;;;;;;;42.15;19.62;;;;;;;2.08;75.40;102348.72;1738120;79;25700;-61
2022/11/28 03:36:27;;;;;;;35.50;19.00;;;;;;;2.11;75.47;102353.95;1771286;81;25667;-60
2022/11/28 03:39:11;;;;;;;37.80;18.77;;;;;;;2.17;75.72;102360.41;1765513;79;25731;-62
2022/11/28 03:41:54;;;;;;;37.47;18.80;;;;;;;2.22;75.74;102360.29;1767260;81;25789;-62
2022/11/28 03:44:36;;;;;;;36.15;19.12;;;;;;;2.28;75.70;102363.66;1767068;81;27481;-63
2022/11/28 03:47:05;;;;;;;37.63;19.80;;;;;;;2.30;75.53;102356.52;1767038;81;25761;-62
2022/11/28 03:49:38;;;;;;;42.88;19.95;;;;;;;2.30;75.34;102363.16;1766489;81;36080;-63
2022/11/28 03:52:16;;;;;;;35.65;18.73;;;;;;;2.31;75.32;102361.36;1765891;81;25784;-61
2022/11/28 03:55:05;;;;;;;41.23;18.32;;;;;;;2.34;75.38;102353.31;1766667;78;25800;-62
2022/11/28 03:57:40;;;;;;;46.58;20.35;;;;;;;2.33;75.34;102365.70;1767384;81;27465;-61
2022/11/28 04:00:11;;;;;;;42.00;18.10;;;;;;;2.34;75.44;102367.45;1767423;80;25782;-62
2022/11/28 04:02:55;;;;;;;40.23;18.57;;;;;;;2.38;75.64;102367.38;1767527;81;25718;-62
2022/11/28 04:05:56;;;;;;;40.88;19.42;;;;;;;2.39;75.57;102364.66;1767651;80;26795;-62
2022/11/28 04:08:37;;;;;;;39.63;18.70;;;;;;;2.39;75.31;102365.99;1748980;81;26096;-62
2022/11/28 04:11:20;;;;;;;43.83;22.58;;;;;;;2.39;75.44;102373.11;1767442;81;27482;-61
2022/11/28 04:14:01;;;;;;;39.17;21.07;;;;;;;2.36;74.86;102370.09;1772002;80;25702;-61
2022/11/28 04:16:39;;;;;;;37.35;19.25;;;;;;;2.30;74.92;102376.44;1775302;80;25781;-62
2022/11/28 04:19:26;;;;;;;40.20;19.62;;;;;;;2.28;74.76;102378.73;1774181;80;25807;-62
2022/11/28 04:21:58;;;;;;;29.70;15.88;;;;;;;2.23;74.68;102379.30;1771739;80;25726;-61
2022/11/28 04:24:44;;;;;;;34.88;18.92;;;;;;;2.16;74.41;102391.42;1765912;81;27499;-62
2022/11/28 04:27:15;;;;;;;34.90;16.87;;;;;;;2.12;74.17;102385.77;1767138;80;25775;-62
2022/11/28 04:29:47;;;;;;;33.35;16.07;;;;;;;2.07;74.23;102390.78;1766916;79;25757;-61
2022/11/28 04:32:19;;;;;;;34.25;18.23;;;;;;;2.05;74.43;102389.97;1766885;81;25834;-62
2022/11/28 04:34:51;;;;;;;30.55;16.85;;;;;;;2.04;74.58;102383.78;1767046;80;25786;-62
2022/11/28 04:37:21;;;;;;;32.28;16.87;;;;;;;2.02;74.64;102383.83;1767333;81;27597;-62
2022/11/28 04:39:51;;;;;;;33.92;17.17;;;;;;;1.99;74.74;102388.34;1766762;79;25747;-62
2022/11/28 04:42:38;;;;;;;32.38;18.05;;;;;;;1.94;74.65;102396.44;1766766;80;25450;-61
2022/11/28 04:45:28;;;;;;;34.78;18.45;;;;;;;1.94;74.94;102395.55;1767520;80;25691;-62
2022/11/28 04:47:56;;;;;;;33.60;15.70;;;;;;;1.99;75.21;102405.61;1766994;81;27319;-61
2022/11/28 04:50:28;;;;;;;30.48;16.82;;;;;;;2.03;75.40;102405.92;1767185;81;27523;-62
2022/11/28 04:53:11;;;;;;;35.88;16.27;;;;;;;2.05;75.35;102409.41;1767866;80;25720;-62
2022/11/28 04:55:48;;;;;;;35.08;16.57;;;;;;;2.09;75.61;102409.77;1768075;81;25805;-62
2022/11/28 04:58:20;;;;;;;32.63;16.67;;;;;;;2.16;75.75;102410.45;1767523;81;25780;-62
2022/11/28 05:00:50;;;;;;;33.23;17.00;;;;;;;2.18;75.54;102405.53;1766640;81;27438;-62
2022/11/28 05:03:19;;;;;;;42.38;17.25;;;;;;;2.18;75.41;102403.31;1767912;81;27481;-61
2022/11/28 05:05:50;;;;;;;35.52;17.23;;;;;;;2.18;75.37;102408.19;1767530;79;25801;-62
2022/11/28 05:08:18;;;;;;;33.33;17.52;;;;;;;2.17;75.22;102403.79;1767692;79;25802;-62
2022/11/28 05:10:46;;;;;;;32.78;17.52;;;;;;;2.16;75.25;102402.48;1767153;80;25871;-61
2022/11/28 05:13:13;;;;;;;34.55;17.27;;;;;;;2.13;75.27;102402.11;1761649;81;25734;-61
2022/11/28 05:15:44;;;;;;;38.85;17.45;;;;;;;2.05;75.05;102401.45;1761819;81;27926;-62
2022/11/28 05:18:10;;;;;;;34.40;17.90;;;;;;;2.02;75.14;102403.73;1766762;81;25823;-62
2022/11/28 05:20:38;;;;;;;33.98;19.55;;;;;;;1.99;75.07;102404.28;1767341;81;25786;-62
2022/11/28 05:23:05;;;;;;;32.88;19.57;;;;;;;1.95;75.11;102401.27;1767063;81;25666;-62
2022/11/28 05:25:32;;;;;;;32.33;18.12;;;;;;;1.92;75.14;102410.66;1767165;81;25694;-61
2022/11/28 05:27:58;;;;;;;36.60;19.02;;;;;;;1.90;75.11;102411.16;1767028;81;27455;-62
2022/11/28 05:30:25;;;;;;;45.50;19.70;;;;;;;1.87;75.04;102414.30;1766948;81;25921;-62
2022/11/28 05:32:52;;;;;;;35.98;19.32;;;;;;;1.89;75.12;102420.88;1767428;81;25770;-63
2022/11/28 05:35:19;;;;;;;36.93;18.15;;;;;;;1.90;75.21;102420.44;1767130;81;26453;-61
2022/11/28 05:37:45;;;;;;;36.93;17.45;;;;;;;1.92;75.43;102426.12;1767411;81;25722;-61
2022/11/28 05:40:13;;;;;;;35.33;17.73;;;;;;;1.94;75.49;102431.38;1766932;81;27487;-61
2022/11/28 05:42:40;;;;;;;35.60;17.15;;;;;;;1.94;75.49;102420.76;1766715;80;25790;-61
2022/11/28 05:45:08;;;;;;;31.35;17.82;;;;;;;1.93;75.59;102423.03;1751384;80;25724;-61
2022/11/28 05:47:35;;;;;;;38.78;17.92;;;;;;;1.93;75.66;102422.55;1743529;81;26825;-61
2022/11/28 05:50:03;;;;;;;37.58;18.10;;;;;;;1.94;75.78;102427.39;1743141;82;25807;-62
2022/11/28 05:52:31;;;;;;;43.85;18.60;;;;;;;1.96;75.84;102429.13;1762220;80;28057;-61
2022/11/28 05:54:59;;;;;;;39.08;19.25;;;;;;;1.99;75.89;102436.13;1768249;80;25719;-61
2022/11/28 05:57:25;;;;;;;29.48;17.15;;;;;;;1.99;76.00;102430.35;1771441;80;25798;-61
2022/11/28 05:59:52;;;;;;;41.00;19.25;;;;;;;2.07;76.25;102433.25;1785765;80;25795;-61
2022/11/28 06:02:19;;;;;;;40.00;16.85;;;;;;;2.17;76.41;102432.11;1785028;80;25762;-61
2022/11/28 06:04:46;;;;;;;44.65;18.87;;;;;;;2.22;76.12;102430.22;1786271;80;27491;-61
2022/11/28 06:07:13;;;;;;;50.45;19.87;;;;;;;2.24;76.05;102432.82;1788967;79;26542;-61
2022/11/28 06:09:40;;;;;;;40.88;18.35;;;;;;;2.28;75.94;102430.52;1790709;80;25747;-61
2022/11/28 06:12:07;;;;;;;37.50;19.25;;;;;;;2.33;75.95;102429.92;1790772;80;27228;-61
2022/11/28 06:14:34;;;;;;;54.05;23.90;;;;;;;2.35;76.01;102426.30;1790736;80;25845;-61
2022/11/28 06:17:01;;;;;;;34.67;18.27;;;;;;;2.39;76.13;102430.21;1790710;80;27559;-61
2022/11/28 06:19:28;;;;;;;44.13;23.25;;;;;;;2.41;76.00;102432.38;1790704;80;25781;-61
2022/11/28 06:21:55;;;;;;;48.08;20.68;;;;;;;2.43;75.78;102439.38;1784193;80;25642;-61
2022/11/28 06:24:22;;;;;;;40.52;20.57;;;;;;;2.43;75.61;102436.73;1771888;80;25846;-61
2022/11/28 06:26:49;;;;;;;40.40;20.05;;;;;;;2.42;75.38;102432.80;1792139;78;25662;-61
2022/11/28 06:29:16;;;;;;;42.38;21.68;;;;;;;2.43;75.24;102443.80;1791929;79;29777;-61
2022/11/28 06:31:42;;;;;;;44.58;19.52;;;;;;;2.42;75.16;102444.75;1787739;80;25619;-61
2022/11/28 06:34:11;;;;;;;41.42;20.77;;;;;;;2.39;74.97;102444.34;1791932;80;25765;-61
2022/11/28 06:36:39;;;;;;;44.88;19.42;;;;;;;2.38;74.96;102449.71;1790655;78;26724;-60
2022/11/28 06:39:06;;;;;;;39.90;19.57;;;;;;;2.37;74.77;102447.53;1783689;80;25803;-60
2022/11/28 06:41:33;;;;;;;36.80;19.10;;;;;;;2.34;74.61;102440.96;1789446;78;27500;-61
2022/11/28 06:44:01;;;;;;;37.00;19.37;;;;;;;2.32;74.90;102442.34;1788049;79;25768;-61
2022/11/28 06:46:27;;;;;;;33.92;18.05;;;;;;;2.34;75.04;102440.48;1791202;78;25844;-62
2022/11/28 06:48:54;;;;;;;42.85;17.85;;;;;;;2.38;75.16;102439.09;1788611;79;26491;-61
2022/11/28 06:51:21;;;;;;;38.92;18.70;;;;;;;2.43;75.22;102442.48;1791017;80;25785;-61
2022/11/28 06:53:49;;;;;;;33.80;17.77;;;;;;;2.50;75.40;102440.95;1789831;80;27651;-61
2022/11/28 06:56:18;;;;;;;42.08;19.48;;;;;;;2.58;75.40;102429.23;1789210;78;26531;-62
2022/11/28 06:58:47;;;;;;;40.20;19.20;;;;;;;2.63;75.40;102432.64;1787868;80;26971;-62
2022/11/28 07:01:18;;;;;;;36.55;17.73;;;;;;;2.67;75.30;102427.64;1791170;80;25739;-62
2022/11/28 07:03:46;;;;;;;38.28;18.52;;;;;;;2.72;75.13;102430.16;1790578;80;25804;-62
2022/11/28 07:06:15;;;;;;;33.73;18.00;;;;;;;2.77;75.22;102422.95;1787519;80;27614;-61
2022/11/28 07:08:43;;;;;;;40.50;18.92;;;;;;;2.85;75.16;102410.30;1778173;80;25842;-62
2022/11/28 07:11:14;;;;;;;39.73;19.62;;;;;;;2.97;75.22;102407.25;1781281;80;25733;-62
2022/11/28 07:13:44;;;;;;;38.20;20.08;;;;;;;3.13;75.28;102403.67;1785010;80;25846;-62
2022/11/28 07:16:25;;;;;;;41.73;19.42;;;;;;;3.23;74.96;102406.90;1780067;79;25790;-62
2022/11/28 07:18:54;;;;;;;41.85;19.62;;;;;;;3.31;74.70;102407.14;1763753;79;27496;-61
2022/11/28 07:21:21;;;;;;;39.55;19.02;;;;;;;3.36;74.18;102414.03;1756172;80;26122;-61
2022/11/28 07:23:48;;;;;;;33.98;18.73;;;;;;;3.36;72.84;102407.85;1775379;80;25809;-61
2022/11/28 07:26:18;;;;;;;38.17;19.07;;;;;;;3.31;73.09;102413.32;1775453;80;27979;-61
2022/11/28 07:28:45;;;;;;;47.30;19.70;;;;;;;3.29;73.12;102413.82;1775564;79;25775;-63
2022/11/28 07:31:17;;;;;;;39.35;20.10;;;;;;;3.29;72.80;102411.16;1775436;80;27456;-62
2022/11/28 07:33:47;;;;;;;38.20;19.07;;;;;;;3.30;72.86;102414.23;1779334;80;25924;-61
2022/11/28 07:36:22;;;;;;;37.88;20.35;;;;;;;3.33;72.43;102415.92;1784052;80;25501;-61
2022/11/28 07:38:54;;;;;;;44.70;23.22;;;;;;;3.32;72.13;102416.39;1785301;78;25834;-61
2022/11/28 07:41:22;;;;;;;45.43;22.07;;;;;;;3.31;71.96;102421.30;1779783;78;25729;-61
2022/11/28 07:43:53;;;;;;;44.75;23.05;;;;;;;3.32;72.22;102420.38;1775312;80;27407;-61
2022/11/28 07:46:20;;;;;;;39.03;20.60;;;;;;;3.31;72.37;102413.80;1762114;80;25745;-61
2022/11/28 07:48:48;;;;;;;27.93;15.88;;;;;;;3.34;72.00;102417.67;1752936;81;25674;-62
2022/11/28 07:51:22;;;;;;;30.88;15.10;;;;;;;3.30;71.61;102419.55;1751956;81;26069;-61
2022/11/28 07:53:49;;;;;;;;;;;;;;;3.24;71.34;102418.43;1761156;80;25767;-62
2022/11/28 07:56:20;;;;;;;28.87;15.78;;;;;;;3.22;71.59;102425.58;1763321;79;28314;-61
2022/11/28 07:58:48;;;;;;;32.73;13.53;;;;;;;3.19;71.62;102425.66;1769166;80;25707;-61
2022/11/28 08:01:20;;;;;;;27.25;14.38;;;;;;;3.22;71.67;102418.93;1773711;80;25814;-61
2022/11/28 08:03:48;;;;;;;26.85;14.15;;;;;;;3.24;72.01;102417.09;1772511;79;25804;-61
2022/11/28 08:06:17;;;;;;;26.75;14.93;;;;;;;3.32;72.32;102423.05;1772231;80;25799;-61
2022/11/28 08:08:45;;;;;;;28.90;14.70;;;;;;;3.41;72.63;102419.20;1773737;80;27441;-61
2022/11/28 08:11:15;;;;;;;29.05;14.63;;;;;;;3.53;72.84;102415.30;1775592;80;25774;-61
2022/11/28 08:13:43;;;;;;;32.70;16.23;;;;;;;3.59;72.63;102413.29;1775658;80;25736;-61
2022/11/28 08:16:18;;;;;;;29.07;14.73;;;;;;;3.73;72.85;102414.64;1775521;80;25788;-61
2022/11/28 08:18:46;;;;;;;27.27;14.68;;;;;;;3.85;72.70;102407.58;1774467;80;25742;-61
2022/11/28 08:21:19;;;;;;;33.98;16.30;;;;;;;3.97;72.43;102404.95;1766020;80;27644;-61
2022/11/28 08:23:46;;;;;;;26.73;15.53;;;;;;;4.02;72.17;102406.13;1764289;80;25457;-62
2022/11/28 08:26:15;;;;;;;34.43;15.20;;;;;;;3.99;71.08;102403.56;1762073;81;25837;-62
2022/11/28 08:28:44;;;;;;;29.25;14.63;;;;;;;3.95;71.12;102404.13;1763633;80;26435;-62
2022/11/28 08:31:17;;;;;;;33.80;15.08;;;;;;;3.98;70.73;102408.47;1756705;80;25815;-61
2022/11/28 08:33:47;;;;;;;33.42;14.98;;;;;;;4.02;70.45;102400.33;1774923;79;27545;-61
2022/11/28 08:36:16;;;;;;;32.33;15.63;;;;;;;4.08;70.44;102397.44;1769091;79;25778;-61
2022/11/28 08:38:44;;;;;;;33.90;16.12;;;;;;;4.16;70.41;102398.98;1764650;80;25739;-61
2022/11/28 08:41:15;;;;;;;35.15;16.10;;;;;;;4.22;69.49;102400.09;1779835;79;25955;-62
2022/11/28 08:43:42;;;;;;;28.60;16.48;;;;;;;4.18;69.89;102398.00;1762303;81;25715;-62
2022/11/28 08:46:13;;;;;;;31.65;16.87;;;;;;;4.21;69.82;102395.20;1761754;80;28179;-62
2022/11/28 08:48:42;;;;;;;38.08;19.27;;;;;;;4.21;69.80;102391.69;1765273;80;25766;-62
2022/11/28 08:51:15;;;;;;;33.50;16.87;;;;;;;4.17;69.39;102389.59;1775109;80;25787;-62
2022/11/28 08:53:43;;;;;;;36.83;18.62;;;;;;;4.11;69.51;102387.60;1772418;80;26465;-61
2022/11/28 08:56:10;;;;;;;36.93;18.92;;;;;;;3.99;69.43;102379.12;1764325;80;25885;-62
2022/11/28 08:58:37;;;;;;;38.25;20.20;;;;;;;3.92;69.64;102377.59;1762915;80;27470;-62
2022/11/28 09:01:16;;;;;;;35.17;19.07;;;;;;;3.90;69.56;102376.77;1767754;80;27313;-62
2022/11/28 09:03:43;;;;;;;33.95;17.30;;;;;;;3.87;69.61;102379.09;1772388;79;25770;-62
2022/11/28 09:06:10;;;;;;;30.17;17.48;;;;;;;3.77;69.88;102373.67;1767300;79;25789;-62
2022/11/28 09:08:37;;;;;;;35.43;17.62;;;;;;;3.78;70.22;102378.55;1778481;79;25784;-62
2022/11/28 09:11:11;;;;;;;30.75;16.52;;;;;;;3.76;70.15;102371.95;1775184;79;27468;-62
2022/11/28 09:13:38;;;;;;;39.85;18.42;;;;;;;3.72;70.58;102370.30;1769082;79;25803;-62
2022/11/28 09:16:07;;;;;;;27.73;16.12;;;;;;;3.74;70.86;102369.80;1775399;79;25734;-61
2022/11/28 09:18:34;;;;;;;33.78;16.27;;;;;;;3.76;71.13;102363.50;1766252;80;25867;-62
2022/11/28 09:21:04;;;;;;;32.40;15.65;;;;;;;3.73;71.21;102359.59;1767606;80;26135;-62
2022/11/28 09:23:30;;;;;;;33.42;15.80;;;;;;;3.62;71.32;102364.44;1763362;80;27612;-62
2022/11/28 09:25:57;;;;;;;28.73;14.45;;;;;;;3.59;71.47;102360.54;1745401;80;26082;-62
2022/11/28 09:28:27;;;;;;;27.87;13.95;;;;;;;3.63;71.69;102347.52;1759067;79;25770;-62
2022/11/28 09:31:05;;;;;;;31.55;14.58;;;;;;;3.74;72.09;102344.03;1772533;80;25969;-62
2022/11/28 09:33:32;;;;;;;33.25;14.38;;;;;;;3.83;72.21;102340.20;1773695;80;26149;-62
2022/11/28 09:36:05;;;;;;;31.57;14.28;;;;;;;3.93;72.07;102339.40;1770841;80;28844;-62
2022/11/28 09:38:31;;;;;;;42.78;19.65;;;;;;;4.04;71.75;102333.69;1764624;80;25839;-62
2022/11/28 09:41:00;;;;;;;52.08;22.48;;;;;;;4.04;71.02;102329.69;1758895;79;25735;-62
2022/11/28 09:43:37;;;;;;;52.98;21.80;;;;;;;4.00;71.19;102330.27;1768947;80;26379;-62
2022/11/28 09:46:10;;;;;;;49.77;21.77;;;;;;;4.07;71.61;102318.48;1745164;82;25819;-62
2022/11/28 09:48:49;;;;;;;34.98;14.38;;;;;;;4.21;71.57;102317.95;1752195;79;27622;-62
2022/11/28 09:51:34;;;;;;;31.80;14.85;;;;;;;4.31;70.27;102323.83;1783228;80;25795;-61
2022/11/28 09:54:35;;;;;;;26.50;13.08;;;;;;;4.30;70.11;102326.56;1757146;80;25801;-61
2022/11/28 09:57:10;;;;;;;29.02;14.40;;;;;;;4.24;69.94;102320.99;1751036;80;25820;-62
2022/11/28 09:59:36;;;;;;;31.65;15.72;;;;;;;4.11;69.88;102312.59;1745421;82;25784;-61
2022/11/28 10:02:26;;;;;;;42.30;17.45;;;;;;;4.04;69.96;102307.05;1744980;82;27479;-61
2022/11/28 10:05:23;;;;;;;46.37;18.42;;;;;;;4.04;70.18;102304.39;1750388;80;25816;-61
2022/11/28 10:08:25;;;;;;;37.05;17.57;;;;;;;3.99;70.40;102312.55;1774718;80;25841;-61
2022/11/28 10:11:23;;;;;;;35.68;16.20;;;;;;;3.95;70.29;102312.27;1803924;78;26619;-61
2022/11/28 10:14:30;;;;;;;30.92;15.20;;;;;;;3.93;70.64;102305.27;1728422;83;25675;-62
2022/11/28 10:17:14;;;;;;;36.23;14.30;;;;;;;3.97;70.85;102305.09;1757350;79;27480;-62
2022/11/28 10:19:46;;;;;;;;;;;;;;;4.02;71.01;102303.12;1730919;80;25804;-61
2022/11/28 10:22:18;;;;;;;33.38;15.65;;;;;;;4.10;71.24;102301.52;1790848;78;25718;-62
2022/11/28 10:24:53;;;;;;;28.62;15.50;;;;;;;4.18;71.48;102298.11;1786224;78;25753;-61
2022/11/28 10:27:27;;;;;;;43.42;15.25;;;;;;;4.19;70.90;102294.97;1787320;80;25752;-61
2022/11/28 10:30:11;;;;;;;44.45;16.60;;;;;;;4.21;71.07;102287.80;1783430;80;27471;-61
2022/11/28 10:32:41;;;;;;;;;;;;;;;4.23;71.24;102284.14;1790912;80;25714;-61
2022/11/28 10:35:37;;;;;;;28.95;14.45;;;;;;;4.30;71.26;102283.93;1770488;81;25747;-61
2022/11/28 10:38:13;;;;;;;36.08;16.87;;;;;;;4.38;71.22;102284.03;1770301;81;25828;-62
2022/11/28 10:40:50;;;;;;;31.62;15.32;;;;;;;4.34;70.73;102280.20;1769612;80;25742;-62
2022/11/28 10:43:40;;;;;;;32.53;15.38;;;;;;;4.30;70.63;102279.94;1789053;78;27531;-61
2022/11/28 10:46:32;;;;;;;33.83;16.02;;;;;;;4.22;70.36;102272.22;1793083;79;25750;-62
2022/11/28 10:49:50;;;;;;;31.05;15.23;;;;;;;4.18;70.22;102270.59;1784497;80;25757;-62
2022/11/28 10:52:31;;;;;;;29.45;15.63;;;;;;;4.04;70.04;102269.77;1786747;80;25866;-62
2022/11/28 10:55:12;;;;;;;32.13;15.08;;;;;;;3.93;70.58;102278.64;1789619;78;25458;-62
2022/11/28 10:57:53;;;;;;;31.73;16.00;;;;;;;3.93;70.59;102271.50;1779163;79;27257;-62
2022/11/28 11:00:20;;;;;;;31.60;16.93;;;;;;;3.87;70.57;102267.27;1749289;80;27245;-61
2022/11/28 11:02:51;;;;;;;34.35;17.17;;;;;;;3.85;71.05;102266.48;1757890;81;26530;-62
2022/11/28 11:05:28;;;;;;;32.10;16.50;;;;;;;3.85;71.36;102264.27;1769012;80;26617;-62
2022/11/28 11:08:24;;;;;;;29.55;16.15;;;;;;;3.88;71.58;102265.48;1753707;80;25780;-62
2022/11/28 11:11:23;;;;;;;55.23;16.42;;;;;;;3.91;71.38;102260.92;1757191;80;27439;-61
2022/11/28 11:14:06;;;;;;;39.83;18.35;;;;;;;3.91;71.42;102253.37;1761649;80;25737;-62
2022/11/28 11:16:49;;;;;;;43.17;17.53;;;;;;;3.89;71.26;102251.26;1731874;80;25806;-62
2022/11/28 11:19:37;;;;;;;46.45;19.32;;;;;;;3.87;71.20;102247.30;1741388;81;25792;-62
2022/11/28 11:22:22;;;;;;;40.90;17.55;;;;;;;3.94;71.45;102253.27;1741793;82;26037;-62
2022/11/28 11:25:16;;;;;;;35.48;16.90;;;;;;;4.05;71.67;102247.09;1748667;80;27523;-62
2022/11/28 11:28:03;;;;;;;38.63;17.15;;;;;;;4.20;71.76;102252.31;1755878;81;25749;-62
2022/11/28 11:30:41;;;;;;;71.17;28.00;;;;;;;4.34;71.59;102251.78;1758159;81;25750;-62
2022/11/28 11:33:14;;;;;;;50.95;22.13;;;;;;;4.45;71.37;102251.36;1755818;79;25956;-62
2022/11/28 11:35:48;;;;;;;;;;;;;;;4.53;71.27;102242.59;1761200;81;25748;-62
2022/11/28 11:38:26;;;;;;;32.53;16.32;;;;;;;4.56;70.97;102248.27;1758455;81;28310;-62
2022/11/28 11:40:53;;;;;;;35.65;14.65;;;;;;;4.58;70.39;102248.19;1785761;79;25759;-62
2022/11/28 11:43:32;;;;;;;29.35;14.43;;;;;;;4.58;70.61;102243.75;1799296;79;25756;-62
2022/11/28 11:46:11;;;;;;;28.32;15.03;;;;;;;4.61;70.12;102247.63;1775195;79;26164;-62
2022/11/28 11:48:45;;;;;;;33.88;14.78;;;;;;;4.58;69.77;102243.75;1767023;81;25737;-62
2022/11/28 11:51:28;;;;;;;34.78;16.57;;;;;;;4.60;70.11;102243.23;1766292;79;28571;-62